Time;durP1;ratioP1;P1;durP2;ratioP2;P2;SDS_P1;SDS_P2;PMS_P1;PMS_P2;Temp;Humidity;BMP_temperature;BMP_pressure;BME280_temperature;BME280_humidity;BME280_pressure;Samples;Min_cycle;Max_cycle;Signal;HPM_P1;HPM_P2
2021/10/17 00:00:16;;;;;;;11.60;4.65;;;9.80;99.90;;;;;;5016153;28;20120;-68
2021/10/17 00:02:43;;;;;;;13.10;4.38;;;9.80;99.90;;;;;;5015978;28;20451;-68
2021/10/17 00:05:14;;;;;;;11.07;4.60;;;9.80;99.90;;;;;;5026047;28;20366;-68
2021/10/17 00:07:39;;;;;;;10.95;4.50;;;9.80;99.90;;;;;;5014146;28;20107;-68
2021/10/17 00:10:08;;;;;;;9.75;4.32;;;9.80;99.90;;;;;;5023528;28;20112;-68
2021/10/17 00:12:35;;;;;;;9.63;4.60;;;9.70;99.90;;;;;;5014654;28;20042;-68
2021/10/17 00:15:01;;;;;;;11.25;4.47;;;9.70;99.90;;;;;;5017076;28;20160;-68
2021/10/17 00:17:27;;;;;;;15.15;5.18;;;9.60;99.90;;;;;;5012244;28;20054;-68
2021/10/17 00:19:53;;;;;;;12.27;4.55;;;9.60;99.90;;;;;;5019318;28;20049;-68
2021/10/17 00:22:19;;;;;;;13.20;4.63;;;9.60;99.90;;;;;;5012265;28;20512;-67
2021/10/17 00:24:44;;;;;;;14.43;4.50;;;9.50;99.90;;;;;;5019484;28;20388;-67
2021/10/17 00:27:10;;;;;;;8.40;4.05;;;9.60;99.90;;;;;;5015505;28;20045;-67
2021/10/17 00:29:36;;;;;;;12.52;4.60;;;9.50;99.90;;;;;;5021303;28;20121;-67
2021/10/17 00:32:02;;;;;;;12.48;4.88;;;9.50;99.90;;;;;;5014885;28;20084;-67
2021/10/17 00:34:28;;;;;;;10.27;4.85;;;9.50;99.90;;;;;;5022025;28;20485;-67
2021/10/17 00:36:54;;;;;;;10.35;4.43;;;9.50;99.90;;;;;;5022704;28;20049;-67
2021/10/17 00:39:19;;;;;;;12.40;4.40;;;9.40;99.90;;;;;;5016095;28;20039;-68
2021/10/17 00:41:46;;;;;;;9.43;4.80;;;9.40;99.90;;;;;;5025581;28;20381;-68
2021/10/17 00:44:20;;;;;;;11.80;4.68;;;9.40;99.90;;;;;;5011858;28;20037;-68
2021/10/17 00:46:47;;;;;;;14.07;4.87;;;9.40;99.90;;;;;;5020341;28;20057;-68
2021/10/17 00:49:12;;;;;;;13.07;4.80;;;9.40;99.90;;;;;;5011965;28;20292;-68
2021/10/17 00:51:38;;;;;;;10.20;4.70;;;9.40;99.90;;;;;;5023324;28;20054;-68
2021/10/17 00:54:03;;;;;;;12.23;4.45;;;9.40;99.90;;;;;;5020231;28;20049;-68
2021/10/17 00:56:29;;;;;;;11.15;4.60;;;9.40;99.90;;;;;;5023527;28;20938;-68
2021/10/17 00:58:55;;;;;;;10.50;4.15;;;9.40;99.90;;;;;;5011959;28;20037;-68
2021/10/17 01:01:21;;;;;;;11.05;4.80;;;9.40;99.90;;;;;;5018408;28;20033;-68
2021/10/17 01:03:46;;;;;;;9.15;4.47;;;9.40;99.90;;;;;;5016416;28;20057;-68
2021/10/17 01:06:13;;;;;;;12.00;4.40;;;9.40;99.90;;;;;;5024693;28;20036;-68
2021/10/17 01:08:40;;;;;;;12.43;4.78;;;9.40;99.90;;;;;;5007290;28;20064;-68
2021/10/17 01:11:06;;;;;;;12.68;5.03;;;9.40;99.90;;;;;;5040204;28;20493;-68
2021/10/17 01:13:31;;;;;;;9.20;4.55;;;9.40;99.90;;;;;;5016873;28;20040;-68
2021/10/17 01:15:57;;;;;;;14.30;5.03;;;9.50;99.90;;;;;;5017422;28;20046;-67
2021/10/17 01:18:25;;;;;;;11.50;4.45;;;9.50;99.90;;;;;;5024260;28;20049;-67
2021/10/17 01:20:51;;;;;;;13.95;4.88;;;9.50;99.90;;;;;;5013756;28;20445;-67
2021/10/17 01:23:18;;;;;;;9.75;4.63;;;9.50;99.90;;;;;;5020761;28;20052;-67
2021/10/17 01:25:44;;;;;;;14.05;5.38;;;9.50;99.90;;;;;;5014342;28;20539;-68
2021/10/17 01:28:10;;;;;;;12.05;4.35;;;9.50;99.90;;;;;;5009886;28;20061;-68
2021/10/17 01:30:36;;;;;;;12.70;5.55;;;9.50;99.90;;;;;;5019771;28;20052;-67
2021/10/17 01:33:03;;;;;;;12.02;4.97;;;9.60;99.90;;;;;;5024558;28;20041;-67
2021/10/17 01:35:29;;;;;;;10.77;5.20;;;9.60;99.90;;;;;;5020800;28;20133;-67
2021/10/17 01:37:54;;;;;;;11.40;5.07;;;9.60;99.90;;;;;;5018906;28;20478;-67
2021/10/17 01:40:20;;;;;;;9.48;5.22;;;9.60;99.90;;;;;;5028245;28;20048;-67
2021/10/17 01:42:46;;;;;;;13.75;5.20;;;9.70;99.90;;;;;;5023614;28;20435;-68
2021/10/17 01:45:12;;;;;;;9.65;4.70;;;9.60;99.90;;;;;;5011849;28;20493;-68
2021/10/17 01:47:43;;;;;;;10.60;5.25;;;9.70;99.90;;;;;;5017194;28;20050;-68
2021/10/17 01:50:09;;;;;;;12.63;4.95;;;9.70;99.90;;;;;;5014785;28;20041;-68
2021/10/17 01:52:35;;;;;;;10.48;5.70;;;9.70;99.90;;;;;;5022249;28;20366;-68
2021/10/17 01:55:00;;;;;;;11.85;5.43;;;9.70;99.90;;;;;;5015095;28;20156;-68
2021/10/17 01:57:26;;;;;;;12.98;5.35;;;9.70;99.90;;;;;;5015627;28;20038;-67
2021/10/17 01:59:52;;;;;;;13.25;5.63;;;9.70;99.90;;;;;;5013107;28;20048;-67
2021/10/17 02:02:17;;;;;;;12.70;5.07;;;9.60;99.90;;;;;;5014424;28;20518;-68
2021/10/17 02:04:43;;;;;;;10.90;5.00;;;9.70;99.90;;;;;;5021322;28;20485;-68
2021/10/17 02:07:09;;;;;;;12.32;4.65;;;9.70;99.90;;;;;;5015470;28;20049;-68
2021/10/17 02:09:34;;;;;;;10.65;4.88;;;9.70;99.90;;;;;;5013934;28;20064;-68
2021/10/17 02:12:00;;;;;;;12.32;5.35;;;9.70;99.90;;;;;;5016563;28;20134;-68
2021/10/17 02:14:26;;;;;;;13.48;5.60;;;9.70;99.90;;;;;;5023488;28;20163;-67
2021/10/17 02:16:51;;;;;;;14.38;5.78;;;9.70;99.90;;;;;;5019277;28;20038;-67
2021/10/17 02:19:17;;;;;;;13.35;5.88;;;9.70;99.90;;;;;;5021896;28;20030;-67
2021/10/17 02:21:43;;;;;;;10.98;6.68;;;9.60;99.90;;;;;;5014479;28;20286;-67
2021/10/17 02:24:11;;;;;;;12.23;6.63;;;9.70;99.90;;;;;;5023767;28;20029;-67
2021/10/17 02:26:38;;;;;;;12.82;6.47;;;9.60;99.90;;;;;;5012499;28;20045;-67
2021/10/17 02:29:05;;;;;;;16.35;6.35;;;9.50;99.90;;;;;;5023830;28;20045;-67
2021/10/17 02:31:31;;;;;;;13.85;6.38;;;9.50;99.90;;;;;;5013482;28;20567;-67
2021/10/17 02:33:57;;;;;;;14.57;6.50;;;9.40;99.90;;;;;;5027007;28;20152;-67
2021/10/17 02:36:23;;;;;;;13.73;6.47;;;9.40;99.90;;;;;;5030100;28;20037;-66
2021/10/17 02:38:49;;;;;;;15.18;6.75;;;9.40;99.90;;;;;;5018671;28;20172;-66
2021/10/17 02:41:14;;;;;;;14.98;7.22;;;9.30;99.90;;;;;;5025066;28;20052;-66
2021/10/17 02:43:40;;;;;;;16.60;7.00;;;9.30;99.90;;;;;;5024150;28;20046;-65
2021/10/17 02:46:06;;;;;;;16.33;6.82;;;9.30;99.90;;;;;;5018822;28;20046;-65
2021/10/17 02:48:32;;;;;;;15.93;6.97;;;9.30;99.90;;;;;;5016345;28;20092;-65
2021/10/17 02:50:58;;;;;;;15.60;7.35;;;9.20;99.90;;;;;;5027791;28;20036;-65
2021/10/17 02:53:23;;;;;;;14.02;7.35;;;9.20;99.90;;;;;;5022283;28;20045;-65
2021/10/17 02:55:49;;;;;;;14.07;7.75;;;9.20;99.90;;;;;;5027821;28;20045;-65
2021/10/17 02:58:15;;;;;;;17.70;7.82;;;9.20;99.90;;;;;;5020764;28;20041;-65
2021/10/17 03:00:41;;;;;;;17.05;7.80;;;9.20;99.90;;;;;;5026233;28;20041;-65
2021/10/17 03:03:07;;;;;;;16.50;6.85;;;9.10;99.90;;;;;;5021009;28;20049;-65
2021/10/17 03:05:33;;;;;;;14.90;7.85;;;9.20;99.90;;;;;;5026042;28;20111;-65
2021/10/17 03:07:59;;;;;;;16.95;7.35;;;9.10;99.90;;;;;;5016203;28;20045;-65
2021/10/17 03:10:25;;;;;;;15.57;8.35;;;9.10;99.90;;;;;;5028128;28;20059;-65
2021/10/17 03:12:51;;;;;;;14.90;8.48;;;9.10;99.90;;;;;;5024159;28;20575;-65
2021/10/17 03:15:17;;;;;;;13.25;8.07;;;9.10;99.90;;;;;;5019527;28;20033;-65
2021/10/17 03:17:42;;;;;;;13.05;7.40;;;9.10;99.90;;;;;;5019169;28;20394;-65
2021/10/17 03:20:10;;;;;;;15.75;8.05;;;9.00;99.90;;;;;;5032397;28;20061;-66
2021/10/17 03:22:36;;;;;;;18.58;9.07;;;9.00;99.90;;;;;;5017792;28;20041;-66
2021/10/17 03:25:01;;;;;;;16.80;8.13;;;9.00;99.90;;;;;;5023813;28;20041;-66
2021/10/17 03:27:27;;;;;;;14.93;7.47;;;9.00;99.90;;;;;;5021794;28;20041;-66
2021/10/17 03:29:53;;;;;;;17.27;8.10;;;9.00;99.90;;;;;;5016554;28;20037;-66
2021/10/17 03:32:18;;;;;;;13.52;8.30;;;9.00;99.90;;;;;;5020105;28;20043;-66
2021/10/17 03:34:44;;;;;;;16.33;8.45;;;9.00;99.90;;;;;;5016940;28;20091;-66
2021/10/17 03:37:10;;;;;;;15.88;7.32;;;9.00;99.90;;;;;;5028058;28;20091;-66
2021/10/17 03:39:36;;;;;;;13.50;7.40;;;9.00;99.90;;;;;;5019481;28;20053;-66
2021/10/17 03:42:01;;;;;;;21.85;8.68;;;9.00;99.90;;;;;;5019878;28;20041;-66
2021/10/17 03:44:27;;;;;;;15.10;8.38;;;9.00;99.90;;;;;;5012882;28;20416;-66
2021/10/17 03:46:53;;;;;;;17.40;7.93;;;9.00;99.90;;;;;;5026175;28;20038;-66
2021/10/17 03:49:19;;;;;;;16.20;7.80;;;9.00;99.90;;;;;;5024836;28;20045;-66
2021/10/17 03:51:44;;;;;;;14.60;7.68;;;9.00;99.90;;;;;;5014043;28;20726;-66
2021/10/17 03:54:10;;;;;;;16.85;9.05;;;9.00;99.90;;;;;;5023257;28;20048;-66
2021/10/17 03:56:36;;;;;;;15.65;7.35;;;9.00;99.90;;;;;;5017381;28;20049;-66
2021/10/17 03:59:02;;;;;;;18.35;7.93;;;9.00;99.90;;;;;;5020290;28;20059;-66
2021/10/17 04:01:27;;;;;;;17.88;7.90;;;9.00;99.90;;;;;;5019408;28;20045;-66
2021/10/17 04:03:53;;;;;;;13.95;6.93;;;9.00;99.90;;;;;;5020233;28;20498;-66
2021/10/17 04:06:18;;;;;;;14.90;7.20;;;9.00;99.90;;;;;;5014136;28;20046;-66
2021/10/17 04:08:44;;;;;;;17.33;7.30;;;9.00;99.90;;;;;;5014586;28;20103;-66
2021/10/17 04:11:10;;;;;;;15.98;7.15;;;9.10;99.90;;;;;;5020410;28;20072;-66
2021/10/17 04:13:36;;;;;;;16.52;7.45;;;9.10;99.90;;;;;;5017244;28;20077;-66
2021/10/17 04:16:02;;;;;;;15.52;8.35;;;9.10;99.90;;;;;;5017010;28;20492;-66
2021/10/17 04:18:27;;;;;;;17.17;7.90;;;9.10;99.90;;;;;;5019344;28;20109;-66
2021/10/17 04:20:53;;;;;;;13.45;7.68;;;9.00;99.90;;;;;;5019807;28;20304;-66
2021/10/17 04:23:19;;;;;;;14.73;8.10;;;9.10;99.90;;;;;;5019103;28;20030;-66
2021/10/17 04:25:45;;;;;;;15.38;8.10;;;9.10;99.90;;;;;;5014596;28;20095;-66
2021/10/17 04:28:10;;;;;;;14.95;8.25;;;9.10;99.90;;;;;;5020362;28;20045;-66
2021/10/17 04:30:36;;;;;;;13.27;7.75;;;9.10;99.90;;;;;;5018694;28;20061;-66
2021/10/17 04:33:02;;;;;;;15.80;8.32;;;9.10;99.90;;;;;;5017516;28;20048;-66
2021/10/17 04:35:33;;;;;;;16.90;7.93;;;9.10;99.90;;;;;;5025036;28;20049;-66
2021/10/17 04:37:59;;;;;;;15.43;8.02;;;9.10;99.90;;;;;;5012983;28;20120;-66
2021/10/17 04:40:25;;;;;;;14.05;7.93;;;9.10;99.90;;;;;;5026511;28;20065;-66
2021/10/17 04:42:51;;;;;;;13.20;8.80;;;9.10;99.90;;;;;;5015023;28;20143;-66
2021/10/17 04:45:17;;;;;;;16.77;8.50;;;9.10;99.90;;;;;;5015957;28;20069;-66
2021/10/17 04:47:43;;;;;;;13.77;8.32;;;9.10;99.90;;;;;;5011607;28;20068;-66
2021/10/17 04:50:08;;;;;;;15.23;8.77;;;9.10;99.90;;;;;;5020379;28;20502;-66
2021/10/17 04:52:34;;;;;;;15.50;8.90;;;9.00;99.90;;;;;;5013404;28;20029;-66
2021/10/17 04:55:00;;;;;;;14.38;8.30;;;9.10;99.90;;;;;;5021344;28;20042;-66
2021/10/17 04:57:25;;;;;;;11.52;8.23;;;9.10;99.90;;;;;;5015911;28;20080;-66
2021/10/17 04:59:51;;;;;;;16.02;8.32;;;9.00;99.90;;;;;;5019023;28;20042;-66
2021/10/17 05:02:17;;;;;;;14.57;9.13;;;9.10;99.90;;;;;;5022151;28;20574;-66
2021/10/17 05:04:43;;;;;;;17.83;9.05;;;9.10;99.90;;;;;;5021057;28;20166;-66
2021/10/17 05:07:09;;;;;;;16.60;9.57;;;9.10;99.90;;;;;;5023259;28;20042;-66
2021/10/17 05:09:35;;;;;;;15.90;9.13;;;9.10;99.90;;;;;;5018197;28;20158;-66
2021/10/17 05:12:00;;;;;;;14.18;8.98;;;9.00;99.90;;;;;;5024149;28;20034;-66
2021/10/17 05:14:26;;;;;;;15.52;8.70;;;9.00;99.90;;;;;;5019573;28;20080;-66
2021/10/17 05:16:52;;;;;;;19.08;9.45;;;9.00;99.90;;;;;;5024082;28;20489;-66
2021/10/17 05:19:18;;;;;;;15.82;9.23;;;9.00;99.90;;;;;;5017570;28;20047;-66
2021/10/17 05:21:43;;;;;;;16.50;8.68;;;9.00;99.90;;;;;;5026832;28;20072;-66
2021/10/17 05:24:09;;;;;;;15.98;8.10;;;9.00;99.90;;;;;;5018796;28;20068;-66
2021/10/17 05:26:35;;;;;;;15.13;8.50;;;9.00;99.90;;;;;;5019582;28;20513;-66
2021/10/17 05:29:00;;;;;;;16.58;8.52;;;9.00;99.90;;;;;;5018812;28;20112;-66
2021/10/17 05:31:27;;;;;;;15.15;9.07;;;9.00;99.90;;;;;;5027631;28;20059;-66
2021/10/17 05:33:52;;;;;;;15.50;9.00;;;9.00;99.90;;;;;;5021055;28;20037;-66
2021/10/17 05:36:18;;;;;;;11.10;7.20;;;9.00;99.90;;;;;;5025576;28;20548;-66
2021/10/17 05:38:44;;;;;;;15.45;8.00;;;8.90;99.90;;;;;;5020118;28;20112;-66
2021/10/17 05:41:09;;;;;;;14.75;7.38;;;9.00;99.90;;;;;;5021208;28;20041;-66
2021/10/17 05:43:35;;;;;;;17.80;8.32;;;9.00;99.90;;;;;;5026166;28;20157;-66
2021/10/17 05:46:01;;;;;;;12.73;7.20;;;9.00;99.90;;;;;;5018894;28;20107;-66
2021/10/17 05:48:27;;;;;;;17.40;7.72;;;8.90;99.90;;;;;;5022887;28;20500;-66
2021/10/17 05:50:54;;;;;;;14.50;7.53;;;9.00;99.90;;;;;;5016252;28;20065;-66
2021/10/17 05:53:19;;;;;;;13.70;7.63;;;8.90;99.90;;;;;;5024941;28;20052;-66
2021/10/17 05:55:45;;;;;;;17.05;8.32;;;8.90;99.90;;;;;;5019421;28;20092;-66
2021/10/17 05:58:11;;;;;;;14.23;7.72;;;9.00;99.90;;;;;;5027150;28;20045;-66
2021/10/17 06:00:36;;;;;;;13.52;7.68;;;9.00;99.90;;;;;;5020936;28;20041;-66
2021/10/17 06:03:02;;;;;;;13.70;7.55;;;8.90;99.90;;;;;;5024785;28;20095;-66
2021/10/17 06:05:28;;;;;;;14.60;8.20;;;8.90;99.90;;;;;;5016492;28;20384;-66
2021/10/17 06:07:53;;;;;;;18.55;7.68;;;8.90;99.90;;;;;;5025242;28;20041;-66
2021/10/17 06:10:19;;;;;;;15.27;7.60;;;8.90;99.90;;;;;;5019944;28;20427;-66
2021/10/17 06:12:45;;;;;;;17.48;8.52;;;9.00;99.90;;;;;;5022238;28;20057;-66
2021/10/17 06:15:11;;;;;;;13.77;7.30;;;9.00;99.90;;;;;;5020622;28;20499;-66
2021/10/17 06:17:37;;;;;;;22.65;9.25;;;9.00;99.90;;;;;;5025667;28;20547;-66
2021/10/17 06:20:05;;;;;;;11.95;6.93;;;9.00;99.90;;;;;;5025541;28;20116;-66
2021/10/17 06:22:30;;;;;;;12.57;8.02;;;9.00;99.90;;;;;;5015292;28;20091;-66
2021/10/17 06:24:56;;;;;;;15.35;7.78;;;8.90;99.90;;;;;;5024950;28;20037;-66
2021/10/17 06:27:22;;;;;;;14.95;7.35;;;8.90;99.90;;;;;;5017568;28;20061;-66
2021/10/17 06:29:48;;;;;;;11.02;7.80;;;9.00;99.90;;;;;;5025843;28;20061;-66
2021/10/17 06:32:13;;;;;;;14.15;7.85;;;9.00;99.90;;;;;;5018077;28;20053;-66
2021/10/17 06:34:39;;;;;;;14.00;7.60;;;8.90;99.90;;;;;;5024495;28;20054;-66
2021/10/17 06:37:05;;;;;;;17.20;7.85;;;8.90;99.90;;;;;;5017493;28;20037;-66
2021/10/17 06:39:31;;;;;;;12.45;6.78;;;9.00;99.90;;;;;;5019557;28;20034;-66
2021/10/17 06:41:57;;;;;;;16.20;7.93;;;9.00;99.90;;;;;;5010593;28;20060;-66
2021/10/17 06:44:22;;;;;;;13.85;8.00;;;9.10;99.90;;;;;;5025496;28;20122;-66
2021/10/17 06:46:49;;;;;;;16.95;9.85;;;9.10;99.90;;;;;;5026254;28;20088;-66
2021/10/17 06:49:16;;;;;;;19.52;9.95;;;9.10;99.90;;;;;;5013837;28;20044;-66
2021/10/17 06:51:41;;;;;;;16.90;8.05;;;9.20;99.90;;;;;;5014170;28;20450;-66
2021/10/17 06:54:07;;;;;;;17.05;8.23;;;9.20;99.90;;;;;;5018124;28;20107;-66
2021/10/17 06:56:33;;;;;;;13.00;7.75;;;9.30;99.90;;;;;;5017288;28;20052;-66
2021/10/17 06:58:58;;;;;;;16.98;7.40;;;9.30;99.90;;;;;;5018665;28;20037;-66
2021/10/17 07:01:24;;;;;;;15.32;7.53;;;9.30;99.90;;;;;;5020989;28;20049;-66
2021/10/17 07:03:50;;;;;;;14.23;8.15;;;9.40;99.90;;;;;;5012942;28;20049;-66
2021/10/17 07:06:15;;;;;;;17.88;8.10;;;9.50;99.90;;;;;;5021957;28;20037;-66
2021/10/17 07:08:41;;;;;;;16.90;8.23;;;9.60;99.90;;;;;;5009861;28;20034;-66
2021/10/17 07:11:07;;;;;;;12.95;7.72;;;9.70;99.90;;;;;;5020671;28;20113;-66
2021/10/17 07:13:33;;;;;;;16.35;7.25;;;9.70;99.90;;;;;;5017993;28;20179;-66
2021/10/17 07:15:58;;;;;;;17.52;8.27;;;9.80;99.90;;;;;;5023735;28;20037;-66
2021/10/17 07:18:24;;;;;;;16.13;7.82;;;9.80;99.90;;;;;;5020288;28;20037;-66
2021/10/17 07:20:51;;;;;;;13.25;7.18;;;9.80;99.90;;;;;;5024541;28;20037;-66
2021/10/17 07:23:17;;;;;;;13.88;8.32;;;9.80;99.90;;;;;;5021781;28;20059;-66
2021/10/17 07:25:42;;;;;;;16.50;7.82;;;9.70;99.90;;;;;;5021593;28;20558;-66
2021/10/17 07:28:08;;;;;;;17.23;7.60;;;9.70;99.90;;;;;;5017626;28;20029;-66
2021/10/17 07:30:34;;;;;;;13.32;6.45;;;9.70;99.90;;;;;;5019354;28;20464;-66
2021/10/17 07:32:59;;;;;;;18.52;7.55;;;9.70;99.90;;;;;;5025460;28;20046;-66
2021/10/17 07:35:25;;;;;;;16.77;6.70;;;9.60;99.90;;;;;;5017595;28;20045;-66
2021/10/17 07:37:51;;;;;;;13.50;7.15;;;9.60;99.90;;;;;;5019935;28;20061;-66
2021/10/17 07:40:17;;;;;;;14.50;7.22;;;9.60;99.90;;;;;;5020548;28;20053;-66
2021/10/17 07:42:42;;;;;;;15.57;8.02;;;9.60;99.90;;;;;;5020052;28;20116;-66
2021/10/17 07:45:09;;;;;;;370.73;302.15;;;9.70;99.90;;;;;;5018725;28;20078;-66
2021/10/17 07:47:35;;;;;;;32.17;23.55;;;9.70;99.90;;;;;;5019234;28;20057;-66
2021/10/17 07:50:03;;;;;;;13.25;7.20;;;9.80;99.90;;;;;;5011434;28;20054;-66
2021/10/17 07:52:29;;;;;;;15.95;8.00;;;9.80;99.90;;;;;;5023837;28;20046;-66
2021/10/17 07:54:57;;;;;;;13.15;7.20;;;9.80;99.90;;;;;;5019212;28;20551;-66
2021/10/17 07:57:22;;;;;;;11.85;7.22;;;9.90;99.90;;;;;;5024818;28;20041;-66
2021/10/17 07:59:48;;;;;;;13.63;7.60;;;10.00;99.90;;;;;;5013102;28;20069;-66
2021/10/17 08:02:14;;;;;;;12.55;6.90;;;10.00;99.90;;;;;;5025854;28;20037;-66
2021/10/17 08:04:40;;;;;;;14.40;7.25;;;9.90;99.90;;;;;;5016270;28;20650;-66
2021/10/17 08:07:06;;;;;;;16.33;7.40;;;10.00;99.90;;;;;;5021649;28;20057;-66
2021/10/17 08:09:32;;;;;;;17.10;7.75;;;10.00;99.90;;;;;;5016163;28;20038;-66
2021/10/17 08:11:59;;;;;;;14.88;7.80;;;10.10;99.90;;;;;;5024560;28;20045;-66
2021/10/17 08:14:24;;;;;;;15.43;7.20;;;10.10;99.90;;;;;;5020339;28;20073;-66
2021/10/17 08:16:51;;;;;;;15.00;7.22;;;10.10;99.90;;;;;;5012394;28;20081;-65
2021/10/17 08:19:17;;;;;;;17.52;7.82;;;10.20;99.90;;;;;;5024434;28;20178;-65
2021/10/17 08:21:43;;;;;;;15.00;7.05;;;10.20;99.90;;;;;;5017103;28;20045;-65
2021/10/17 08:24:09;;;;;;;13.88;6.97;;;10.20;99.90;;;;;;5019281;28;20053;-65
2021/10/17 08:26:35;;;;;;;13.65;7.32;;;10.30;99.90;;;;;;5018523;28;20041;-65
2021/10/17 08:29:00;;;;;;;13.52;7.50;;;10.40;99.90;;;;;;5021055;28;20408;-65
2021/10/17 08:31:26;;;;;;;14.20;7.18;;;10.50;99.90;;;;;;5013899;28;20091;-65
2021/10/17 08:33:52;;;;;;;15.02;7.53;;;10.60;99.90;;;;;;5022798;28;20497;-65
2021/10/17 08:36:18;;;;;;;11.13;6.72;;;10.60;99.90;;;;;;5017626;28;20430;-65
2021/10/17 08:38:44;;;;;;;14.70;7.22;;;10.60;99.90;;;;;;5021308;28;20116;-65
2021/10/17 08:41:10;;;;;;;13.07;7.18;;;10.60;99.90;;;;;;5012690;28;20208;-65
2021/10/17 08:43:36;;;;;;;14.13;6.72;;;10.50;99.90;;;;;;5024201;28;20046;-65
2021/10/17 08:46:02;;;;;;;14.25;7.05;;;10.60;99.90;;;;;;5018621;28;20041;-65
2021/10/17 08:48:31;;;;;;;14.75;7.18;;;10.70;99.90;;;;;;5025959;28;20486;-66
2021/10/17 08:50:58;;;;;;;14.68;7.18;;;10.70;99.90;;;;;;5017026;28;20069;-65
2021/10/17 08:53:23;;;;;;;12.98;7.03;;;10.70;99.90;;;;;;5010536;28;20056;-65
2021/10/17 08:55:49;;;;;;;17.27;7.57;;;10.70;99.90;;;;;;5017696;28;20045;-65
2021/10/17 08:58:15;;;;;;;15.27;8.05;;;10.70;99.90;;;;;;5018826;28;20068;-65
2021/10/17 09:00:41;;;;;;;13.25;6.93;;;10.70;99.90;;;;;;5017836;28;20049;-65
2021/10/17 09:03:06;;;;;;;14.15;7.43;;;10.70;99.90;;;;;;5016285;28;20054;-65
2021/10/17 09:05:39;;;;;;;12.88;7.47;;;10.70;99.90;;;;;;5018396;28;20034;-66
2021/10/17 09:08:06;;;;;;;23.30;14.10;;;10.80;99.90;;;;;;5011755;28;20120;-66
2021/10/17 09:10:32;;;;;;;15.70;9.88;;;10.80;99.90;;;;;;5018635;28;20053;-66
2021/10/17 09:13:27;;;;;;;13.50;7.38;;;10.80;99.90;;;;;;5010126;28;20125;-66
2021/10/17 09:15:55;;;;;;;12.68;6.85;;;10.90;99.90;;;;;;5007226;28;20061;-66
2021/10/17 09:18:25;;;;;;;14.77;7.72;;;11.00;99.90;;;;;;5010786;28;20056;-66
2021/10/17 09:20:55;;;;;;;17.40;7.13;;;11.00;99.90;;;;;;5017095;28;20382;-66
2021/10/17 09:23:21;;;;;;;14.50;7.32;;;11.10;99.90;;;;;;5012303;28;20062;-66
2021/10/17 09:25:48;;;;;;;14.93;7.50;;;11.10;99.90;;;;;;5016700;28;20049;-66
2021/10/17 09:28:19;;;;;;;13.63;7.15;;;11.20;99.90;;;;;;5020054;28;20038;-66
2021/10/17 09:30:56;;;;;;;12.15;7.15;;;11.20;99.90;;;;;;5016846;28;20057;-66
2021/10/17 09:33:22;;;;;;;17.10;7.13;;;11.30;99.90;;;;;;5009750;28;20447;-66
2021/10/17 09:35:48;;;;;;;13.68;7.50;;;11.30;99.90;;;;;;5024267;28;20077;-66
2021/10/17 09:38:19;;;;;;;15.43;7.05;;;11.30;99.90;;;;;;5011481;28;20037;-65
2021/10/17 09:40:46;;;;;;;12.95;6.78;;;11.30;99.90;;;;;;5026745;28;20490;-65
2021/10/17 09:43:33;;;;;;;14.68;7.50;;;11.30;99.90;;;;;;5017233;28;20037;-65
2021/10/17 09:46:17;;;;;;;15.57;7.70;;;11.30;99.90;;;;;;5022439;28;20049;-65
2021/10/17 09:48:43;;;;;;;21.65;10.50;;;11.40;99.90;;;;;;5013669;28;20048;-66
2021/10/17 09:51:14;;;;;;;14.13;7.38;;;11.30;99.90;;;;;;5015757;28;20233;-66
2021/10/17 09:53:51;;;;;;;12.70;7.70;;;11.40;99.90;;;;;;5013608;28;20046;-66
2021/10/17 09:56:33;;;;;;;14.45;6.60;;;11.40;99.90;;;;;;5020943;28;20409;-66
2021/10/17 09:59:02;;;;;;;11.75;6.88;;;11.30;99.90;;;;;;5010919;28;20045;-66
2021/10/17 10:01:29;;;;;;;12.90;6.93;;;11.30;99.90;;;;;;5022504;28;20065;-66
2021/10/17 10:03:58;;;;;;;14.18;7.40;;;11.30;99.90;;;;;;5019356;28;20044;-66
2021/10/17 10:06:25;;;;;;;13.43;6.68;;;11.30;99.90;;;;;;5034566;28;20046;-66
2021/10/17 10:08:56;;;;;;;14.02;6.22;;;11.30;99.90;;;;;;5026197;28;20041;-66
2021/10/17 10:11:25;;;;;;;13.30;7.55;;;11.30;99.90;;;;;;5017128;28;20057;-66
2021/10/17 10:13:52;;;;;;;11.75;6.63;;;11.30;99.90;;;;;;5017776;28;20042;-66
2021/10/17 10:16:22;;;;;;;16.38;6.97;;;11.30;99.90;;;;;;5015876;28;20230;-66
2021/10/17 10:18:53;;;;;;;14.80;6.90;;;11.30;99.90;;;;;;5019211;28;20389;-66
2021/10/17 10:21:20;;;;;;;14.55;7.00;;;11.30;99.90;;;;;;5014553;28;20060;-66
2021/10/17 10:23:49;;;;;;;13.90;5.80;;;11.40;99.90;;;;;;5026038;28;20105;-66
2021/10/17 10:26:16;;;;;;;15.10;7.03;;;11.40;99.90;;;;;;5013241;28;20038;-66
2021/10/17 10:28:42;;;;;;;17.13;7.43;;;11.50;99.90;;;;;;5016842;28;20436;-66
2021/10/17 10:31:41;;;;;;;20.90;12.00;;;11.50;99.90;;;;;;5017229;28;20421;-66
2021/10/17 10:34:08;;;;;;;15.38;6.85;;;11.50;99.90;;;;;;5022007;28;20544;-66
2021/10/17 10:36:40;;;;;;;11.98;6.75;;;11.50;99.90;;;;;;5015026;28;20037;-66
2021/10/17 10:39:16;;;;;;;12.60;6.38;;;11.60;99.90;;;;;;5024889;28;20085;-66
2021/10/17 10:41:50;;;;;;;14.10;5.95;;;11.60;99.90;;;;;;5013269;28;20080;-66
2021/10/17 10:44:17;;;;;;;;;;;11.60;99.90;;;;;;5021227;28;20034;-66
2021/10/17 10:46:44;;;;;;;14.88;6.95;;;11.60;99.90;;;;;;5020926;28;19933;-66
2021/10/17 10:49:10;;;;;;;12.32;5.97;;;11.60;99.90;;;;;;5018111;28;20176;-66
2021/10/17 10:51:46;;;;;;;13.52;6.43;;;11.60;99.90;;;;;;5012952;28;20096;-66
2021/10/17 10:54:21;;;;;;;11.18;6.72;;;11.60;99.90;;;;;;5016363;28;20050;-66
2021/10/17 10:56:50;;;;;;;14.77;6.95;;;11.70;99.90;;;;;;5019312;28;20542;-66
2021/10/17 10:59:18;;;;;;;15.40;6.32;;;11.80;99.90;;;;;;5026152;28;20037;-66
2021/10/17 11:01:55;;;;;;;12.73;6.45;;;11.90;99.90;;;;;;5020994;28;20481;-66
2021/10/17 11:04:42;;;;;;;13.15;5.63;;;12.00;99.90;;;;;;5040818;28;20508;-66
2021/10/17 11:07:27;;;;;;;13.00;6.30;;;12.10;99.90;;;;;;5011854;28;20065;-66
2021/10/17 11:10:17;;;;;;;11.75;5.60;;;12.20;99.90;;;;;;5021854;28;20037;-66
2021/10/17 11:12:43;;;;;;;12.95;5.90;;;12.30;99.90;;;;;;5019747;28;20048;-66
2021/10/17 11:15:11;;;;;;;13.05;5.45;;;12.50;99.90;;;;;;5024519;28;20273;-66
2021/10/17 11:17:37;;;;;;;22.45;14.98;;;12.60;99.90;;;;;;5022654;28;20480;-66
2021/10/17 11:20:05;;;;;;;13.18;6.07;;;12.70;99.90;;;;;;5028545;28;20085;-66
2021/10/17 11:22:37;;;;;;;9.90;5.82;;;12.80;99.90;;;;;;5015047;28;20044;-66
2021/10/17 11:25:03;;;;;;;11.57;5.03;;;13.00;99.80;;;;;;5023804;28;20048;-66
2021/10/17 11:27:29;;;;;;;7.68;4.70;;;13.10;99.60;;;;;;5007874;28;20057;-66
2021/10/17 11:29:55;;;;;;;15.43;5.38;;;13.20;99.00;;;;;;5024633;28;20038;-66
2021/10/17 11:32:20;;;;;;;11.75;4.90;;;13.20;98.80;;;;;;5015467;28;20069;-66
2021/10/17 11:34:59;;;;;;;10.32;4.78;;;13.30;98.60;;;;;;5018145;28;20192;-66
2021/10/17 11:37:27;;;;;;;10.18;4.95;;;13.40;98.30;;;;;;5025177;28;20061;-66
2021/10/17 11:40:03;;;;;;;10.23;4.57;;;13.40;98.00;;;;;;5017571;28;20042;-66
2021/10/17 11:42:41;;;;;;;10.95;4.32;;;13.50;97.50;;;;;;5023833;28;20075;-66
2021/10/17 11:45:14;;;;;;;14.00;5.10;;;13.50;97.20;;;;;;5019614;28;20054;-66
2021/10/17 11:47:44;;;;;;;10.13;4.75;;;13.40;97.30;;;;;;5023059;28;20093;-66
2021/10/17 11:50:09;;;;;;;10.65;4.88;;;13.40;97.40;;;;;;5017790;28;20315;-66
2021/10/17 11:52:35;;;;;;;7.85;4.38;;;13.40;97.50;;;;;;5021873;28;20543;-66
2021/10/17 11:55:01;;;;;;;9.50;4.63;;;13.40;97.40;;;;;;5018212;28;20124;-66
2021/10/17 11:57:28;;;;;;;7.40;4.40;;;13.40;97.00;;;;;;5015911;28;20041;-66
2021/10/17 12:00:04;;;;;;;10.65;4.55;;;13.40;97.00;;;;;;5017612;28;20037;-65
2021/10/17 12:02:34;;;;;;;12.90;4.88;;;13.40;97.10;;;;;;5023457;28;20038;-65
2021/10/17 12:05:00;;;;;;;12.57;4.80;;;13.40;97.30;;;;;;5019253;28;20073;-66
2021/10/17 12:07:27;;;;;;;10.93;5.05;;;13.40;97.30;;;;;;5020863;28;20057;-66
2021/10/17 12:09:54;;;;;;;8.82;4.40;;;13.40;97.10;;;;;;5012771;28;20124;-66
2021/10/17 12:12:23;;;;;;;9.25;4.32;;;13.50;96.80;;;;;;5021875;28;20045;-67
2021/10/17 12:15:07;;;;;;;8.00;4.22;;;13.50;97.00;;;;;;5016905;28;20055;-67
2021/10/17 12:17:34;;;;;;;13.10;5.43;;;13.50;96.50;;;;;;5024540;28;20041;-67
2021/10/17 12:20:02;;;;;;;12.25;6.18;;;13.50;96.80;;;;;;5010941;28;20033;-67
2021/10/17 12:22:39;;;;;;;12.63;5.65;;;13.50;96.90;;;;;;5017672;28;20084;-67
2021/10/17 12:25:13;;;;;;;10.40;4.60;;;13.60;97.00;;;;;;5021972;28;20056;-67
2021/10/17 12:27:42;;;;;;;11.43;5.20;;;13.60;97.00;;;;;;5017694;28;20045;-67
2021/10/17 12:30:09;;;;;;;12.52;4.70;;;13.60;96.70;;;;;;5008513;28;20045;-67
2021/10/17 12:32:49;;;;;;;10.20;4.03;;;13.70;96.80;;;;;;5026346;28;20033;-67
2021/10/17 12:35:32;;;;;;;11.50;5.05;;;13.70;96.60;;;;;;5021190;28;20505;-67
2021/10/17 12:38:13;;;;;;;11.65;4.30;;;13.80;96.80;;;;;;5024433;28;20038;-67
2021/10/17 12:40:55;;;;;;;15.43;5.10;;;13.80;97.00;;;;;;5034863;28;20084;-67
2021/10/17 12:43:46;;;;;;;7.47;4.70;;;13.90;96.80;;;;;;5029230;28;20037;-67